Cumberland Gap, Tennessee
Current Conditions -  °F | °C
As of 1:15 AM on Thursday 29 Jan 2015 (Local Time) from K1A6 Reporting Station
Clear Clear  
Wind Chill: 27°   Ceiling: Unl
Heat Index: 32°   Visibility: 10mi
Dew Point: 22°   Wind: 5mph
Humidity: 67%   Direction: 240°WSW
Pressure: 30.22"   Gusts: NA
Location:  36.6°N, 83.67°W
Report Text: K1A6 290615Z AUTO 24004KT 10SM CLR 00/M05 A3022 RMK AO2 T00001055
Loading
Personal Weather Stations






























Interactive Weather Map New forecast layout! Learn more

10-Day Weather Forecast

Advertisements
Track Severe Weather on mobile